sensor_id;sensor_type;location;lat;lon;timestamp;P1;durP1;ratioP1;P2;durP2;ratioP2
54845;SDS011;53889;50.084;8.646;2023-06-22T00:02:00;8.60;;;5.65;;
54845;SDS011;53889;50.084;8.646;2023-06-22T00:04:28;9.10;;;5.32;;
54845;SDS011;53889;50.084;8.646;2023-06-22T00:06:54;6.68;;;5.25;;
54845;SDS011;53889;50.084;8.646;2023-06-22T00:09:21;7.03;;;5.43;;
54845;SDS011;53889;50.084;8.646;2023-06-22T00:11:48;8.02;;;5.50;;
54845;SDS011;53889;50.084;8.646;2023-06-22T00:14:14;6.93;;;4.93;;
54845;SDS011;53889;50.084;8.646;2023-06-22T00:16:41;7.50;;;5.65;;
54845;SDS011;53889;50.084;8.646;2023-06-22T00:19:09;7.63;;;5.22;;
54845;SDS011;53889;50.084;8.646;2023-06-22T00:21:38;5.75;;;4.90;;
54845;SDS011;53889;50.084;8.646;2023-06-22T00:24:04;5.90;;;4.65;;
54845;SDS011;53889;50.084;8.646;2023-06-22T00:26:32;5.53;;;4.80;;
54845;SDS011;53889;50.084;8.646;2023-06-22T00:28:59;8.02;;;5.18;;
54845;SDS011;53889;50.084;8.646;2023-06-22T00:31:26;7.10;;;5.10;;
54845;SDS011;53889;50.084;8.646;2023-06-22T00:33:53;7.65;;;5.15;;
54845;SDS011;53889;50.084;8.646;2023-06-22T00:36:20;5.82;;;4.85;;
54845;SDS011;53889;50.084;8.646;2023-06-22T00:38:48;5.82;;;4.72;;
54845;SDS011;53889;50.084;8.646;2023-06-22T00:41:15;5.28;;;4.55;;
54845;SDS011;53889;50.084;8.646;2023-06-22T00:43:42;5.88;;;4.72;;
54845;SDS011;53889;50.084;8.646;2023-06-22T00:46:09;6.55;;;5.13;;
54845;SDS011;53889;50.084;8.646;2023-06-22T00:48:36;6.28;;;4.70;;
54845;SDS011;53889;50.084;8.646;2023-06-22T00:51:03;5.65;;;4.55;;
54845;SDS011;53889;50.084;8.646;2023-06-22T00:53:29;5.93;;;4.70;;
54845;SDS011;53889;50.084;8.646;2023-06-22T00:56:01;5.60;;;4.40;;
54845;SDS011;53889;50.084;8.646;2023-06-22T00:58:28;6.25;;;4.43;;
54845;SDS011;53889;50.084;8.646;2023-06-22T01:00:56;5.78;;;4.43;;
54845;SDS011;53889;50.084;8.646;2023-06-22T01:03:26;5.82;;;4.90;;
54845;SDS011;53889;50.084;8.646;2023-06-22T01:05:52;8.52;;;4.65;;
54845;SDS011;53889;50.084;8.646;2023-06-22T01:08:29;7.13;;;4.57;;
54845;SDS011;53889;50.084;8.646;2023-06-22T01:11:00;6.80;;;5.03;;
54845;SDS011;53889;50.084;8.646;2023-06-22T01:13:35;8.98;;;5.47;;
54845;SDS011;53889;50.084;8.646;2023-06-22T01:16:06;8.73;;;5.93;;
54845;SDS011;53889;50.084;8.646;2023-06-22T01:18:37;8.10;;;6.35;;
54845;SDS011;53889;50.084;8.646;2023-06-22T01:21:08;7.47;;;6.18;;
54845;SDS011;53889;50.084;8.646;2023-06-22T01:23:42;7.60;;;6.00;;
54845;SDS011;53889;50.084;8.646;2023-06-22T01:26:22;8.35;;;6.13;;
54845;SDS011;53889;50.084;8.646;2023-06-22T01:28:57;9.63;;;6.45;;
54845;SDS011;53889;50.084;8.646;2023-06-22T01:31:27;9.18;;;6.30;;
54845;SDS011;53889;50.084;8.646;2023-06-22T01:33:57;9.80;;;6.80;;
54845;SDS011;53889;50.084;8.646;2023-06-22T01:36:26;8.55;;;6.75;;
54845;SDS011;53889;50.084;8.646;2023-06-22T01:38:55;10.23;;;7.13;;
54845;SDS011;53889;50.084;8.646;2023-06-22T01:41:24;8.07;;;7.25;;
54845;SDS011;53889;50.084;8.646;2023-06-22T01:43:52;7.93;;;7.13;;
54845;SDS011;53889;50.084;8.646;2023-06-22T01:46:21;10.10;;;7.63;;
54845;SDS011;53889;50.084;8.646;2023-06-22T01:48:49;10.93;;;7.38;;
54845;SDS011;53889;50.084;8.646;2023-06-22T01:51:17;9.30;;;7.18;;
54845;SDS011;53889;50.084;8.646;2023-06-22T01:53:44;8.93;;;7.45;;
54845;SDS011;53889;50.084;8.646;2023-06-22T01:56:10;8.35;;;6.72;;
54845;SDS011;53889;50.084;8.646;2023-06-22T01:58:40;8.75;;;7.38;;
54845;SDS011;53889;50.084;8.646;2023-06-22T02:01:12;7.70;;;6.68;;
54845;SDS011;53889;50.084;8.646;2023-06-22T02:03:43;8.18;;;7.10;;
54845;SDS011;53889;50.084;8.646;2023-06-22T02:06:20;9.30;;;7.70;;
54845;SDS011;53889;50.084;8.646;2023-06-22T02:08:51;8.75;;;6.93;;
54845;SDS011;53889;50.084;8.646;2023-06-22T02:11:22;9.25;;;7.47;;
54845;SDS011;53889;50.084;8.646;2023-06-22T02:13:52;9.43;;;7.65;;
54845;SDS011;53889;50.084;8.646;2023-06-22T02:16:19;8.50;;;7.60;;
54845;SDS011;53889;50.084;8.646;2023-06-22T02:18:48;8.90;;;7.45;;
54845;SDS011;53889;50.084;8.646;2023-06-22T02:21:16;8.30;;;7.40;;
54845;SDS011;53889;50.084;8.646;2023-06-22T02:23:43;8.32;;;7.43;;
54845;SDS011;53889;50.084;8.646;2023-06-22T02:26:10;8.45;;;7.45;;
54845;SDS011;53889;50.084;8.646;2023-06-22T02:28:37;8.80;;;7.30;;
54845;SDS011;53889;50.084;8.646;2023-06-22T02:31:04;9.25;;;6.93;;
54845;SDS011;53889;50.084;8.646;2023-06-22T02:33:30;8.98;;;6.75;;
54845;SDS011;53889;50.084;8.646;2023-06-22T02:35:58;7.93;;;6.80;;
54845;SDS011;53889;50.084;8.646;2023-06-22T02:38:25;7.70;;;6.72;;
54845;SDS011;53889;50.084;8.646;2023-06-22T02:40:52;7.35;;;6.45;;
54845;SDS011;53889;50.084;8.646;2023-06-22T02:43:18;8.70;;;7.18;;
54845;SDS011;53889;50.084;8.646;2023-06-22T02:45:45;8.57;;;7.03;;
54845;SDS011;53889;50.084;8.646;2023-06-22T02:48:12;9.05;;;7.90;;
54845;SDS011;53889;50.084;8.646;2023-06-22T02:50:39;7.90;;;7.10;;
54845;SDS011;53889;50.084;8.646;2023-06-22T02:53:06;8.75;;;7.30;;
54845;SDS011;53889;50.084;8.646;2023-06-22T02:55:36;9.20;;;7.30;;
54845;SDS011;53889;50.084;8.646;2023-06-22T02:58:04;11.07;;;7.50;;
54845;SDS011;53889;50.084;8.646;2023-06-22T03:00:34;7.60;;;6.80;;
54845;SDS011;53889;50.084;8.646;2023-06-22T03:03:01;8.88;;;7.15;;
54845;SDS011;53889;50.084;8.646;2023-06-22T03:05:27;9.55;;;7.18;;
54845;SDS011;53889;50.084;8.646;2023-06-22T03:07:56;10.27;;;7.65;;
54845;SDS011;53889;50.084;8.646;2023-06-22T03:10:24;8.15;;;7.30;;
54845;SDS011;53889;50.084;8.646;2023-06-22T03:12:51;9.15;;;7.65;;
54845;SDS011;53889;50.084;8.646;2023-06-22T03:15:17;8.57;;;7.65;;
54845;SDS011;53889;50.084;8.646;2023-06-22T03:17:44;8.25;;;7.32;;
54845;SDS011;53889;50.084;8.646;2023-06-22T03:20:11;8.30;;;7.00;;
54845;SDS011;53889;50.084;8.646;2023-06-22T03:22:38;8.18;;;6.60;;
54845;SDS011;53889;50.084;8.646;2023-06-22T03:25:06;8.27;;;6.75;;
54845;SDS011;53889;50.084;8.646;2023-06-22T03:27:40;9.73;;;6.60;;
54845;SDS011;53889;50.084;8.646;2023-06-22T03:30:07;8.07;;;6.75;;
54845;SDS011;53889;50.084;8.646;2023-06-22T03:32:36;7.93;;;6.72;;
54845;SDS011;53889;50.084;8.646;2023-06-22T03:35:04;7.95;;;6.97;;
54845;SDS011;53889;50.084;8.646;2023-06-22T03:37:34;8.40;;;7.35;;
54845;SDS011;53889;50.084;8.646;2023-06-22T03:40:01;7.95;;;7.10;;
54845;SDS011;53889;50.084;8.646;2023-06-22T03:42:30;9.70;;;7.68;;
54845;SDS011;53889;50.084;8.646;2023-06-22T03:44:58;10.02;;;7.50;;
54845;SDS011;53889;50.084;8.646;2023-06-22T03:47:26;7.90;;;6.80;;
54845;SDS011;53889;50.084;8.646;2023-06-22T03:49:52;9.20;;;7.18;;
54845;SDS011;53889;50.084;8.646;2023-06-22T03:52:20;7.90;;;7.05;;
54845;SDS011;53889;50.084;8.646;2023-06-22T03:54:46;7.85;;;7.05;;
54845;SDS011;53889;50.084;8.646;2023-06-22T03:57:13;9.38;;;7.03;;
54845;SDS011;53889;50.084;8.646;2023-06-22T03:59:40;8.27;;;7.15;;
54845;SDS011;53889;50.084;8.646;2023-06-22T04:02:08;8.23;;;6.82;;
54845;SDS011;53889;50.084;8.646;2023-06-22T04:04:34;9.80;;;7.03;;
54845;SDS011;53889;50.084;8.646;2023-06-22T04:07:01;9.75;;;7.78;;
54845;SDS011;53889;50.084;8.646;2023-06-22T04:09:28;9.18;;;6.78;;
54845;SDS011;53889;50.084;8.646;2023-06-22T04:11:54;11.57;;;7.43;;
54845;SDS011;53889;50.084;8.646;2023-06-22T04:14:21;8.60;;;7.40;;
54845;SDS011;53889;50.084;8.646;2023-06-22T04:16:47;8.75;;;6.95;;
54845;SDS011;53889;50.084;8.646;2023-06-22T04:19:15;10.23;;;7.05;;
54845;SDS011;53889;50.084;8.646;2023-06-22T04:21:42;11.15;;;7.40;;
54845;SDS011;53889;50.084;8.646;2023-06-22T04:24:10;8.60;;;7.03;;
54845;SDS011;53889;50.084;8.646;2023-06-22T04:26:37;10.00;;;7.80;;
54845;SDS011;53889;50.084;8.646;2023-06-22T04:29:06;10.07;;;7.60;;
54845;SDS011;53889;50.084;8.646;2023-06-22T04:31:33;9.57;;;7.75;;
54845;SDS011;53889;50.084;8.646;2023-06-22T04:34:01;9.20;;;7.85;;
54845;SDS011;53889;50.084;8.646;2023-06-22T04:36:33;9.38;;;8.02;;
54845;SDS011;53889;50.084;8.646;2023-06-22T04:39:03;8.93;;;7.88;;
54845;SDS011;53889;50.084;8.646;2023-06-22T04:41:31;9.82;;;7.50;;
54845;SDS011;53889;50.084;8.646;2023-06-22T04:44:07;9.52;;;8.02;;
54845;SDS011;53889;50.084;8.646;2023-06-22T04:46:34;11.55;;;8.07;;
54845;SDS011;53889;50.084;8.646;2023-06-22T04:49:03;8.88;;;7.00;;
54845;SDS011;53889;50.084;8.646;2023-06-22T04:51:37;9.43;;;7.18;;
54845;SDS011;53889;50.084;8.646;2023-06-22T04:54:06;9.75;;;7.18;;
54845;SDS011;53889;50.084;8.646;2023-06-22T04:56:33;10.52;;;7.05;;
54845;SDS011;53889;50.084;8.646;2023-06-22T04:58:59;9.63;;;7.43;;
54845;SDS011;53889;50.084;8.646;2023-06-22T05:01:28;10.23;;;7.40;;
54845;SDS011;53889;50.084;8.646;2023-06-22T05:03:57;10.05;;;7.00;;
54845;SDS011;53889;50.084;8.646;2023-06-22T05:06:26;11.40;;;7.88;;
54845;SDS011;53889;50.084;8.646;2023-06-22T05:08:54;9.63;;;6.63;;
54845;SDS011;53889;50.084;8.646;2023-06-22T05:11:22;8.93;;;7.18;;
54845;SDS011;53889;50.084;8.646;2023-06-22T05:13:49;10.77;;;7.10;;
54845;SDS011;53889;50.084;8.646;2023-06-22T05:16:16;10.93;;;7.05;;
54845;SDS011;53889;50.084;8.646;2023-06-22T05:18:42;9.48;;;7.40;;
54845;SDS011;53889;50.084;8.646;2023-06-22T05:21:09;8.80;;;7.82;;
54845;SDS011;53889;50.084;8.646;2023-06-22T05:23:36;8.77;;;7.70;;
54845;SDS011;53889;50.084;8.646;2023-06-22T05:26:04;10.52;;;7.55;;
54845;SDS011;53889;50.084;8.646;2023-06-22T05:28:30;9.48;;;8.10;;
54845;SDS011;53889;50.084;8.646;2023-06-22T05:30:59;10.45;;;7.53;;
54845;SDS011;53889;50.084;8.646;2023-06-22T05:33:25;13.52;;;7.65;;
54845;SDS011;53889;50.084;8.646;2023-06-22T05:35:52;9.02;;;7.55;;
54845;SDS011;53889;50.084;8.646;2023-06-22T05:38:19;10.73;;;7.47;;
54845;SDS011;53889;50.084;8.646;2023-06-22T05:40:45;9.43;;;7.07;;
54845;SDS011;53889;50.084;8.646;2023-06-22T05:43:13;8.45;;;6.88;;
54845;SDS011;53889;50.084;8.646;2023-06-22T05:45:40;8.48;;;6.03;;
54845;SDS011;53889;50.084;8.646;2023-06-22T05:48:07;7.32;;;6.03;;
54845;SDS011;53889;50.084;8.646;2023-06-22T05:50:33;6.13;;;5.25;;
54845;SDS011;53889;50.084;8.646;2023-06-22T05:53:00;7.03;;;5.68;;
54845;SDS011;53889;50.084;8.646;2023-06-22T05:55:27;6.43;;;5.40;;
54845;SDS011;53889;50.084;8.646;2023-06-22T05:57:53;8.70;;;5.85;;
54845;SDS011;53889;50.084;8.646;2023-06-22T06:00:22;6.05;;;4.97;;
54845;SDS011;53889;50.084;8.646;2023-06-22T06:02:49;7.60;;;5.15;;
54845;SDS011;53889;50.084;8.646;2023-06-22T06:05:15;7.95;;;5.53;;
54845;SDS011;53889;50.084;8.646;2023-06-22T06:07:44;6.43;;;4.95;;
54845;SDS011;53889;50.084;8.646;2023-06-22T06:10:11;6.93;;;5.32;;
54845;SDS011;53889;50.084;8.646;2023-06-22T06:12:38;7.03;;;5.65;;
54845;SDS011;53889;50.084;8.646;2023-06-22T06:15:05;6.28;;;5.60;;
54845;SDS011;53889;50.084;8.646;2023-06-22T06:17:33;7.85;;;5.90;;
54845;SDS011;53889;50.084;8.646;2023-06-22T06:20:00;6.80;;;5.60;;
54845;SDS011;53889;50.084;8.646;2023-06-22T06:22:29;7.20;;;5.65;;
54845;SDS011;53889;50.084;8.646;2023-06-22T06:24:55;7.43;;;5.53;;
54845;SDS011;53889;50.084;8.646;2023-06-22T06:27:22;8.30;;;5.50;;
54845;SDS011;53889;50.084;8.646;2023-06-22T06:29:54;8.73;;;5.55;;
54845;SDS011;53889;50.084;8.646;2023-06-22T06:32:20;5.55;;;4.95;;
54845;SDS011;53889;50.084;8.646;2023-06-22T06:34:48;7.95;;;5.80;;
54845;SDS011;53889;50.084;8.646;2023-06-22T06:37:16;6.35;;;5.63;;
54845;SDS011;53889;50.084;8.646;2023-06-22T06:39:43;8.13;;;6.28;;
54845;SDS011;53889;50.084;8.646;2023-06-22T06:42:10;8.65;;;6.00;;
54845;SDS011;53889;50.084;8.646;2023-06-22T06:44:37;7.85;;;6.03;;
54845;SDS011;53889;50.084;8.646;2023-06-22T06:47:03;7.82;;;5.60;;
54845;SDS011;53889;50.084;8.646;2023-06-22T06:49:30;6.72;;;4.43;;
54845;SDS011;53889;50.084;8.646;2023-06-22T06:51:58;7.78;;;4.82;;
54845;SDS011;53889;50.084;8.646;2023-06-22T06:54:25;8.90;;;5.95;;
54845;SDS011;53889;50.084;8.646;2023-06-22T06:56:52;8.52;;;5.20;;
54845;SDS011;53889;50.084;8.646;2023-06-22T06:59:19;8.02;;;6.50;;
54845;SDS011;53889;50.084;8.646;2023-06-22T07:01:45;8.43;;;5.63;;
54845;SDS011;53889;50.084;8.646;2023-06-22T07:04:13;7.40;;;5.60;;
54845;SDS011;53889;50.084;8.646;2023-06-22T07:06:40;6.78;;;5.90;;
54845;SDS011;53889;50.084;8.646;2023-06-22T07:09:09;9.75;;;6.10;;
54845;SDS011;53889;50.084;8.646;2023-06-22T07:11:35;8.63;;;5.80;;
54845;SDS011;53889;50.084;8.646;2023-06-22T07:14:02;10.15;;;5.70;;
54845;SDS011;53889;50.084;8.646;2023-06-22T07:16:29;7.60;;;5.43;;
54845;SDS011;53889;50.084;8.646;2023-06-22T07:18:56;8.13;;;5.72;;
54845;SDS011;53889;50.084;8.646;2023-06-22T07:21:23;6.88;;;6.00;;
54845;SDS011;53889;50.084;8.646;2023-06-22T07:23:49;8.10;;;6.45;;
54845;SDS011;53889;50.084;8.646;2023-06-22T07:26:17;8.13;;;6.78;;
54845;SDS011;53889;50.084;8.646;2023-06-22T07:28:44;9.02;;;6.25;;
54845;SDS011;53889;50.084;8.646;2023-06-22T07:31:11;8.82;;;6.00;;
54845;SDS011;53889;50.084;8.646;2023-06-22T07:33:37;34.72;;;7.95;;
54845;SDS011;53889;50.084;8.646;2023-06-22T07:36:04;8.70;;;6.22;;
54845;SDS011;53889;50.084;8.646;2023-06-22T07:38:33;7.95;;;6.13;;
54845;SDS011;53889;50.084;8.646;2023-06-22T07:41:00;8.63;;;6.20;;
54845;SDS011;53889;50.084;8.646;2023-06-22T07:43:28;9.10;;;5.50;;
54845;SDS011;53889;50.084;8.646;2023-06-22T07:45:55;6.43;;;5.50;;
54845;SDS011;53889;50.084;8.646;2023-06-22T07:48:22;6.57;;;5.00;;
54845;SDS011;53889;50.084;8.646;2023-06-22T07:50:49;5.90;;;5.30;;
54845;SDS011;53889;50.084;8.646;2023-06-22T07:53:16;5.38;;;4.60;;
54845;SDS011;53889;50.084;8.646;2023-06-22T07:55:42;7.22;;;5.50;;
54845;SDS011;53889;50.084;8.646;2023-06-22T07:58:09;6.68;;;4.85;;
54845;SDS011;53889;50.084;8.646;2023-06-22T08:00:38;6.75;;;5.07;;
54845;SDS011;53889;50.084;8.646;2023-06-22T08:03:04;7.57;;;5.97;;
54845;SDS011;53889;50.084;8.646;2023-06-22T08:05:32;7.22;;;5.40;;
54845;SDS011;53889;50.084;8.646;2023-06-22T08:07:59;7.38;;;5.90;;
54845;SDS011;53889;50.084;8.646;2023-06-22T08:10:25;6.72;;;5.70;;
54845;SDS011;53889;50.084;8.646;2023-06-22T08:12:52;6.63;;;5.65;;
54845;SDS011;53889;50.084;8.646;2023-06-22T08:15:19;6.55;;;5.50;;
54845;SDS011;53889;50.084;8.646;2023-06-22T08:17:48;7.30;;;5.30;;
54845;SDS011;53889;50.084;8.646;2023-06-22T08:20:14;7.78;;;6.63;;
54845;SDS011;53889;50.084;8.646;2023-06-22T08:22:41;10.13;;;5.70;;
54845;SDS011;53889;50.084;8.646;2023-06-22T08:25:09;8.52;;;5.70;;
54845;SDS011;53889;50.084;8.646;2023-06-22T08:27:36;6.55;;;4.93;;
54845;SDS011;53889;50.084;8.646;2023-06-22T08:30:03;8.00;;;5.53;;
54845;SDS011;53889;50.084;8.646;2023-06-22T08:32:31;10.23;;;5.97;;
54845;SDS011;53889;50.084;8.646;2023-06-22T08:35:00;8.00;;;5.40;;
54845;SDS011;53889;50.084;8.646;2023-06-22T08:37:27;6.70;;;5.68;;
54845;SDS011;53889;50.084;8.646;2023-06-22T08:39:56;7.40;;;5.40;;
54845;SDS011;53889;50.084;8.646;2023-06-22T08:42:23;7.45;;;5.40;;
54845;SDS011;53889;50.084;8.646;2023-06-22T08:44:50;10.07;;;5.60;;
54845;SDS011;53889;50.084;8.646;2023-06-22T08:47:18;6.80;;;5.82;;
54845;SDS011;53889;50.084;8.646;2023-06-22T08:49:46;7.45;;;5.53;;
54845;SDS011;53889;50.084;8.646;2023-06-22T08:52:17;6.30;;;5.22;;
54845;SDS011;53889;50.084;8.646;2023-06-22T08:54:44;9.07;;;6.25;;
54845;SDS011;53889;50.084;8.646;2023-06-22T08:57:11;5.90;;;5.30;;
54845;SDS011;53889;50.084;8.646;2023-06-22T08:59:38;7.93;;;5.25;;
54845;SDS011;53889;50.084;8.646;2023-06-22T09:02:05;8.07;;;5.60;;
54845;SDS011;53889;50.084;8.646;2023-06-22T09:04:32;6.78;;;5.10;;
54845;SDS011;53889;50.084;8.646;2023-06-22T09:06:59;7.28;;;6.40;;
54845;SDS011;53889;50.084;8.646;2023-06-22T09:09:28;9.40;;;7.65;;
54845;SDS011;53889;50.084;8.646;2023-06-22T09:11:55;6.55;;;5.43;;
54845;SDS011;53889;50.084;8.646;2023-06-22T09:14:21;6.30;;;5.43;;
54845;SDS011;53889;50.084;8.646;2023-06-22T09:16:48;8.20;;;5.60;;
54845;SDS011;53889;50.084;8.646;2023-06-22T09:19:14;11.48;;;9.18;;
54845;SDS011;53889;50.084;8.646;2023-06-22T09:21:41;11.98;;;8.43;;
54845;SDS011;53889;50.084;8.646;2023-06-22T09:24:08;8.88;;;7.07;;
54845;SDS011;53889;50.084;8.646;2023-06-22T09:26:36;10.82;;;7.50;;
54845;SDS011;53889;50.084;8.646;2023-06-22T09:29:04;6.75;;;5.60;;
54845;SDS011;53889;50.084;8.646;2023-06-22T09:31:31;7.57;;;5.75;;
54845;SDS011;53889;50.084;8.646;2023-06-22T09:33:57;8.82;;;5.82;;
54845;SDS011;53889;50.084;8.646;2023-06-22T09:36:24;6.13;;;4.90;;
54845;SDS011;53889;50.084;8.646;2023-06-22T09:38:51;5.63;;;5.13;;
54845;SDS011;53889;50.084;8.646;2023-06-22T09:41:20;7.85;;;5.57;;
54845;SDS011;53889;50.084;8.646;2023-06-22T09:43:49;8.05;;;5.80;;
54845;SDS011;53889;50.084;8.646;2023-06-22T09:46:16;6.63;;;5.20;;
54845;SDS011;53889;50.084;8.646;2023-06-22T09:48:43;6.57;;;5.57;;
54845;SDS011;53889;50.084;8.646;2023-06-22T09:51:11;7.43;;;5.70;;
54845;SDS011;53889;50.084;8.646;2023-06-22T09:53:38;6.35;;;5.40;;
54845;SDS011;53889;50.084;8.646;2023-06-22T09:56:04;6.65;;;5.25;;
54845;SDS011;53889;50.084;8.646;2023-06-22T09:58:32;6.10;;;5.07;;
54845;SDS011;53889;50.084;8.646;2023-06-22T10:01:00;5.65;;;4.97;;
54845;SDS011;53889;50.084;8.646;2023-06-22T10:03:26;5.13;;;4.28;;
54845;SDS011;53889;50.084;8.646;2023-06-22T10:05:53;5.50;;;4.53;;
54845;SDS011;53889;50.084;8.646;2023-06-22T10:08:20;5.55;;;4.40;;
54845;SDS011;53889;50.084;8.646;2023-06-22T10:10:46;6.72;;;4.60;;
54845;SDS011;53889;50.084;8.646;2023-06-22T10:13:13;5.55;;;4.70;;
54845;SDS011;53889;50.084;8.646;2023-06-22T10:15:40;6.60;;;4.82;;
54845;SDS011;53889;50.084;8.646;2023-06-22T10:18:09;6.93;;;4.47;;
54845;SDS011;53889;50.084;8.646;2023-06-22T10:20:35;5.50;;;4.70;;
54845;SDS011;53889;50.084;8.646;2023-06-22T10:23:02;6.18;;;4.40;;
54845;SDS011;53889;50.084;8.646;2023-06-22T10:25:29;6.18;;;4.72;;
54845;SDS011;53889;50.084;8.646;2023-06-22T10:27:55;6.93;;;4.45;;
54845;SDS011;53889;50.084;8.646;2023-06-22T10:30:23;7.57;;;4.82;;
54845;SDS011;53889;50.084;8.646;2023-06-22T10:32:50;6.50;;;4.93;;
54845;SDS011;53889;50.084;8.646;2023-06-22T10:35:18;8.63;;;5.15;;
54845;SDS011;53889;50.084;8.646;2023-06-22T10:37:45;6.22;;;4.50;;
54845;SDS011;53889;50.084;8.646;2023-06-22T10:40:12;5.65;;;4.50;;
54845;SDS011;53889;50.084;8.646;2023-06-22T10:42:40;5.32;;;4.75;;
54845;SDS011;53889;50.084;8.646;2023-06-22T10:45:07;5.45;;;4.40;;
54845;SDS011;53889;50.084;8.646;2023-06-22T10:47:34;5.32;;;4.43;;
54845;SDS011;53889;50.084;8.646;2023-06-22T10:50:01;7.80;;;4.22;;
54845;SDS011;53889;50.084;8.646;2023-06-22T10:52:30;5.47;;;4.28;;
54845;SDS011;53889;50.084;8.646;2023-06-22T10:54:57;6.93;;;4.40;;
54845;SDS011;53889;50.084;8.646;2023-06-22T10:57:24;7.45;;;4.80;;
54845;SDS011;53889;50.084;8.646;2023-06-22T10:59:51;6.20;;;4.18;;
54845;SDS011;53889;50.084;8.646;2023-06-22T11:02:17;6.90;;;4.40;;
54845;SDS011;53889;50.084;8.646;2023-06-22T11:04:44;6.07;;;4.40;;
54845;SDS011;53889;50.084;8.646;2023-06-22T11:07:11;5.90;;;4.10;;
54845;SDS011;53889;50.084;8.646;2023-06-22T11:09:39;5.28;;;4.18;;
54845;SDS011;53889;50.084;8.646;2023-06-22T11:12:06;8.30;;;4.60;;
54845;SDS011;53889;50.084;8.646;2023-06-22T11:14:33;5.97;;;4.00;;
54845;SDS011;53889;50.084;8.646;2023-06-22T11:16:59;6.88;;;4.50;;
54845;SDS011;53889;50.084;8.646;2023-06-22T11:19:26;7.25;;;4.78;;
54845;SDS011;53889;50.084;8.646;2023-06-22T11:21:53;7.90;;;4.55;;
54845;SDS011;53889;50.084;8.646;2023-06-22T11:24:20;8.15;;;5.05;;
54845;SDS011;53889;50.084;8.646;2023-06-22T11:26:48;6.80;;;4.70;;
54845;SDS011;53889;50.084;8.646;2023-06-22T11:29:15;7.07;;;4.50;;
54845;SDS011;53889;50.084;8.646;2023-06-22T11:31:41;6.82;;;4.80;;
54845;SDS011;53889;50.084;8.646;2023-06-22T11:34:08;6.40;;;4.72;;
54845;SDS011;53889;50.084;8.646;2023-06-22T11:36:36;7.00;;;4.70;;
54845;SDS011;53889;50.084;8.646;2023-06-22T11:39:03;6.38;;;4.72;;
54845;SDS011;53889;50.084;8.646;2023-06-22T11:41:30;4.85;;;4.10;;
54845;SDS011;53889;50.084;8.646;2023-06-22T11:43:58;7.35;;;4.68;;
54845;SDS011;53889;50.084;8.646;2023-06-22T11:46:24;9.68;;;4.80;;
54845;SDS011;53889;50.084;8.646;2023-06-22T11:48:51;7.15;;;4.72;;
54845;SDS011;53889;50.084;8.646;2023-06-22T11:51:18;6.75;;;4.68;;
54845;SDS011;53889;50.084;8.646;2023-06-22T11:53:45;7.28;;;4.60;;
54845;SDS011;53889;50.084;8.646;2023-06-22T11:56:12;5.82;;;4.30;;
54845;SDS011;53889;50.084;8.646;2023-06-22T11:58:38;6.35;;;4.15;;
54845;SDS011;53889;50.084;8.646;2023-06-22T12:01:06;7.32;;;4.70;;
54845;SDS011;53889;50.084;8.646;2023-06-22T12:03:33;6.45;;;4.30;;
54845;SDS011;53889;50.084;8.646;2023-06-22T12:05:59;8.35;;;4.13;;
54845;SDS011;53889;50.084;8.646;2023-06-22T12:08:26;7.40;;;4.30;;
54845;SDS011;53889;50.084;8.646;2023-06-22T12:10:53;6.75;;;4.00;;
54845;SDS011;53889;50.084;8.646;2023-06-22T12:13:20;7.72;;;4.20;;
54845;SDS011;53889;50.084;8.646;2023-06-22T12:15:46;8.65;;;4.65;;
54845;SDS011;53889;50.084;8.646;2023-06-22T12:18:14;6.45;;;4.32;;
54845;SDS011;53889;50.084;8.646;2023-06-22T12:20:41;6.30;;;4.25;;
54845;SDS011;53889;50.084;8.646;2023-06-22T12:23:07;7.15;;;4.57;;
54845;SDS011;53889;50.084;8.646;2023-06-22T12:25:34;6.25;;;4.35;;
54845;SDS011;53889;50.084;8.646;2023-06-22T12:28:01;8.38;;;4.60;;
54845;SDS011;53889;50.084;8.646;2023-06-22T12:30:29;6.70;;;4.40;;
54845;SDS011;53889;50.084;8.646;2023-06-22T12:32:56;6.38;;;4.13;;
54845;SDS011;53889;50.084;8.646;2023-06-22T12:35:24;6.38;;;4.60;;
54845;SDS011;53889;50.084;8.646;2023-06-22T12:37:50;6.20;;;4.20;;
54845;SDS011;53889;50.084;8.646;2023-06-22T12:40:17;5.95;;;4.70;;
54845;SDS011;53889;50.084;8.646;2023-06-22T12:42:45;7.20;;;4.68;;
54845;SDS011;53889;50.084;8.646;2023-06-22T12:45:11;7.20;;;4.40;;
54845;SDS011;53889;50.084;8.646;2023-06-22T12:47:38;7.25;;;5.00;;
54845;SDS011;53889;50.084;8.646;2023-06-22T12:50:05;6.53;;;4.85;;
54845;SDS011;53889;50.084;8.646;2023-06-22T12:52:35;6.70;;;4.38;;
54845;SDS011;53889;50.084;8.646;2023-06-22T12:55:04;7.60;;;4.78;;
54845;SDS011;53889;50.084;8.646;2023-06-22T12:57:31;8.18;;;5.13;;
54845;SDS011;53889;50.084;8.646;2023-06-22T12:59:57;8.35;;;4.72;;
54845;SDS011;53889;50.084;8.646;2023-06-22T13:02:25;7.18;;;4.93;;
54845;SDS011;53889;50.084;8.646;2023-06-22T13:04:52;7.50;;;5.05;;
54845;SDS011;53889;50.084;8.646;2023-06-22T13:07:19;8.73;;;5.53;;
54845;SDS011;53889;50.084;8.646;2023-06-22T13:09:47;8.30;;;5.18;;
54845;SDS011;53889;50.084;8.646;2023-06-22T13:12:16;7.35;;;5.28;;
54845;SDS011;53889;50.084;8.646;2023-06-22T13:14:43;7.20;;;4.80;;
54845;SDS011;53889;50.084;8.646;2023-06-22T13:17:11;8.63;;;5.30;;
54845;SDS011;53889;50.084;8.646;2023-06-22T13:19:39;7.68;;;5.20;;
54845;SDS011;53889;50.084;8.646;2023-06-22T13:22:24;8.38;;;5.13;;
54845;SDS011;53889;50.084;8.646;2023-06-22T13:24:54;8.45;;;4.90;;
54845;SDS011;53889;50.084;8.646;2023-06-22T13:27:21;8.13;;;4.90;;
54845;SDS011;53889;50.084;8.646;2023-06-22T13:29:48;7.57;;;5.05;;
54845;SDS011;53889;50.084;8.646;2023-06-22T13:32:15;9.55;;;5.00;;
54845;SDS011;53889;50.084;8.646;2023-06-22T13:34:41;7.82;;;5.00;;
54845;SDS011;53889;50.084;8.646;2023-06-22T13:37:09;8.98;;;5.10;;
54845;SDS011;53889;50.084;8.646;2023-06-22T13:39:36;7.82;;;5.13;;
54845;SDS011;53889;50.084;8.646;2023-06-22T13:42:04;6.53;;;4.78;;
54845;SDS011;53889;50.084;8.646;2023-06-22T13:44:31;8.00;;;5.10;;
54845;SDS011;53889;50.084;8.646;2023-06-22T13:46:58;11.75;;;5.25;;
54845;SDS011;53889;50.084;8.646;2023-06-22T13:49:24;8.02;;;5.38;;
54845;SDS011;53889;50.084;8.646;2023-06-22T13:51:51;7.78;;;5.35;;
54845;SDS011;53889;50.084;8.646;2023-06-22T13:54:18;10.63;;;5.25;;
54845;SDS011;53889;50.084;8.646;2023-06-22T13:56:44;8.38;;;5.45;;
54845;SDS011;53889;50.084;8.646;2023-06-22T13:59:12;12.00;;;5.43;;
54845;SDS011;53889;50.084;8.646;2023-06-22T14:01:39;8.85;;;5.28;;
54845;SDS011;53889;50.084;8.646;2023-06-22T14:04:06;10.65;;;5.32;;
54845;SDS011;53889;50.084;8.646;2023-06-22T14:06:33;8.75;;;5.10;;
54845;SDS011;53889;50.084;8.646;2023-06-22T14:09:00;9.15;;;5.00;;
54845;SDS011;53889;50.084;8.646;2023-06-22T14:11:27;9.15;;;5.22;;
54845;SDS011;53889;50.084;8.646;2023-06-22T14:13:54;7.78;;;5.10;;
54845;SDS011;53889;50.084;8.646;2023-06-22T14:16:22;8.85;;;4.65;;
54845;SDS011;53889;50.084;8.646;2023-06-22T14:18:49;9.10;;;4.93;;
54845;SDS011;53889;50.084;8.646;2023-06-22T14:21:15;10.15;;;4.90;;
54845;SDS011;53889;50.084;8.646;2023-06-22T14:23:42;11.60;;;4.78;;
54845;SDS011;53889;50.084;8.646;2023-06-22T14:26:14;12.00;;;3.92;;
54845;SDS011;53889;50.084;8.646;2023-06-22T14:28:42;8.88;;;3.72;;
54845;SDS011;53889;50.084;8.646;2023-06-22T14:31:12;9.68;;;3.75;;
54845;SDS011;53889;50.084;8.646;2023-06-22T14:33:40;9.00;;;3.40;;
54845;SDS011;53889;50.084;8.646;2023-06-22T14:36:07;11.70;;;3.80;;
54845;SDS011;53889;50.084;8.646;2023-06-22T14:38:33;11.52;;;3.70;;
54845;SDS011;53889;50.084;8.646;2023-06-22T14:41:00;9.60;;;3.80;;
54845;SDS011;53889;50.084;8.646;2023-06-22T14:43:26;10.63;;;3.50;;
54845;SDS011;53889;50.084;8.646;2023-06-22T14:45:53;12.73;;;3.95;;
54845;SDS011;53889;50.084;8.646;2023-06-22T14:48:20;6.63;;;3.72;;